createdAt,value
2022-09-27T00:04:29.076Z,99624.44
2022-09-27T00:09:33.222Z,99625.28
2022-09-27T00:14:38.197Z,99631.34
2022-09-27T00:19:41.867Z,99629.44
2022-09-27T00:24:45.526Z,99638.06
2022-09-27T00:29:50.597Z,99652.66
2022-09-27T00:34:54.337Z,99656.91
2022-09-27T00:39:58.100Z,99661.16
2022-09-27T00:45:12.993Z,99640.00
2022-09-27T00:50:25.366Z,99641.38
2022-09-27T00:55:34.281Z,99632.06
2022-09-27T01:00:43.712Z,99635.66
2022-09-27T01:05:47.425Z,99644.13
2022-09-27T01:11:05.472Z,99651.06
2022-09-27T01:16:19.928Z,99659.47
2022-09-27T01:21:40.684Z,99661.25
2022-09-27T01:27:13.356Z,99654.66
2022-09-27T01:32:23.786Z,99661.62
2022-09-27T01:37:37.619Z,99674.41
2022-09-27T01:42:49.188Z,99670.72
2022-09-27T01:47:58.142Z,99677.38
2022-09-27T01:53:11.958Z,99723.94
2022-09-27T01:58:22.088Z,99687.72
2022-09-27T02:03:32.094Z,99673.19
2022-09-27T02:08:44.737Z,99675.34
2022-09-27T02:13:54.457Z,99687.44
2022-09-27T02:19:15.732Z,99704.75
2022-09-27T02:24:25.744Z,99696.00
2022-09-27T02:29:38.617Z,99669.88
2022-09-27T02:34:46.232Z,99671.69
2022-09-27T02:39:50.267Z,99682.69
2022-09-27T02:44:54.416Z,99685.44
2022-09-27T02:50:18.508Z,99686.44
2022-09-27T02:55:35.438Z,99683.72
2022-09-27T03:00:47.548Z,99674.19
2022-09-27T03:06:01.360Z,99673.94
2022-09-27T03:11:05.682Z,99668.41
2022-09-27T03:16:09.502Z,99667.75
2022-09-27T03:21:19.204Z,99676.88
2022-09-27T03:26:23.034Z,99690.84
2022-09-27T03:31:26.775Z,99695.87
2022-09-27T03:36:35.061Z,99695.16
2022-09-27T03:41:39.264Z,99708.97
2022-09-27T03:46:43.209Z,99725.53
2022-09-27T03:51:48.326Z,99723.62
2022-09-27T03:56:52.224Z,99730.47
2022-09-27T04:01:56.351Z,99731.06
2022-09-27T04:07:05.778Z,99707.00
2022-09-27T04:12:09.584Z,99702.94
2022-09-27T04:17:13.545Z,99701.38
2022-09-27T04:22:20.507Z,99697.97
2022-09-27T04:27:24.266Z,99692.25
2022-09-27T04:32:28.092Z,99699.16
2022-09-27T04:37:53.543Z,99695.69
2022-09-27T04:42:57.429Z,99713.75
2022-09-27T04:48:01.081Z,99713.91
2022-09-27T04:53:07.095Z,99721.25
2022-09-27T04:58:11.174Z,99714.53
2022-09-27T05:03:15.604Z,99708.78
2022-09-27T05:08:27.713Z,99710.34
2022-09-27T05:13:36.931Z,99710.56
2022-09-27T05:18:41.293Z,99720.09
2022-09-27T05:23:49.907Z,99713.75
2022-09-27T05:28:53.779Z,99723.12
2022-09-27T05:33:57.647Z,99724.75
2022-09-27T05:39:03.720Z,99737.88
2022-09-27T05:44:07.668Z,99738.94
2022-09-27T05:49:13.551Z,99736.81
2022-09-27T05:54:18.861Z,99739.47
2022-09-27T05:59:22.593Z,99739.38
2022-09-27T06:04:29.570Z,99733.16
2022-09-27T06:09:35.765Z,99738.66
2022-09-27T06:14:40.563Z,99747.28
2022-09-27T06:19:44.787Z,99744.84
2022-09-27T06:24:51.507Z,99738.69
2022-09-27T06:29:55.927Z,99735.16
2022-09-27T06:35:00.953Z,99722.72
2022-09-27T06:40:09.249Z,99736.72
2022-09-27T06:45:17.617Z,99726.81
2022-09-27T06:50:24.047Z,99726.31
2022-09-27T06:55:29.228Z,99732.44
2022-09-27T07:00:33.077Z,99727.81
2022-09-27T07:05:38.893Z,99747.34
2022-09-27T07:10:45.135Z,99740.63
2022-09-27T07:15:49.160Z,99750.94
2022-09-27T07:20:56.788Z,99758.91
2022-09-27T07:26:06.919Z,99757.34
2022-09-27T07:31:11.334Z,99766.59
2022-09-27T07:36:15.761Z,99764.22
2022-09-27T07:41:21.051Z,99767.19
2022-09-27T07:46:26.103Z,99770.25
2022-09-27T07:51:29.911Z,99768.84
2022-09-27T07:56:35.937Z,99780.41
2022-09-27T08:01:40.549Z,99775.56
2022-09-27T08:06:44.373Z,99774.63
2022-09-27T08:11:49.670Z,99771.78
2022-09-27T08:16:53.450Z,99766.19
2022-09-27T08:21:59.054Z,99765.47
2022-09-27T08:27:10.780Z,99764.03
2022-09-27T08:32:22.841Z,99762.63
2022-09-27T08:37:27.715Z,99773.88
2022-09-27T08:42:46.806Z,99769.56
2022-09-27T08:47:55.464Z,99776.75
2022-09-27T08:53:05.208Z,99797.91
2022-09-27T08:58:16.366Z,99798.06
2022-09-27T09:03:25.691Z,99795.41
2022-09-27T09:08:42.970Z,99798.47
2022-09-27T09:14:17.967Z,99803.06
2022-09-27T09:19:41.601Z,99809.19
2022-09-27T09:24:58.311Z,99813.97
2022-09-27T09:30:20.232Z,99822.84
2022-09-27T09:35:28.865Z,99839.22
2022-09-27T09:40:38.644Z,99837.44
2022-09-27T09:45:47.962Z,99847.56
2022-09-27T09:50:57.271Z,99848.94
2022-09-27T09:56:05.472Z,99841.22
2022-09-27T10:01:21.089Z,99841.06
2022-09-27T10:06:27.147Z,99834.19
2022-09-27T10:11:37.120Z,99833.56
2022-09-27T10:16:47.932Z,99833.56
2022-09-27T10:21:52.641Z,99835.75
2022-09-27T10:27:01.183Z,99832.87
2022-09-27T10:32:22.678Z,99827.50
2022-09-27T10:37:26.637Z,99831.88
2022-09-27T10:42:36.061Z,99824.19
2022-09-27T10:47:41.474Z,99823.00
2022-09-27T10:52:46.639Z,99824.44
2022-09-27T10:57:53.720Z,99809.00
2022-09-27T11:03:02.762Z,99798.53
2022-09-27T11:08:24.556Z,99802.78
2022-09-27T11:13:32.725Z,99790.59
2022-09-27T11:18:48.258Z,99787.69
2022-09-27T11:24:22.010Z,99789.94
2022-09-27T11:29:37.362Z,99791.56
2022-09-27T11:35:02.996Z,99793.56
2022-09-27T11:40:22.272Z,99794.91
2022-09-27T11:46:03.028Z,99785.94
2022-09-27T11:51:11.120Z,99781.69
2022-09-27T11:56:26.259Z,99783.62
2022-09-27T12:01:39.375Z,99778.94
2022-09-27T12:06:57.012Z,99786.41
2022-09-27T12:12:05.791Z,99781.88
2022-09-27T12:17:16.760Z,99777.59
2022-09-27T12:22:54.088Z,99762.78
2022-09-27T12:27:59.252Z,99767.22
2022-09-27T12:33:09.477Z,99771.47
2022-09-27T12:38:18.310Z,99761.09
2022-09-27T12:43:24.706Z,99735.50
2022-09-27T12:48:39.116Z,99749.44
2022-09-27T12:54:01.002Z,99744.91
2022-09-27T12:59:35.247Z,99730.91
2022-09-27T13:05:03.189Z,99725.78
2022-09-27T13:10:47.418Z,99721.81
2022-09-27T13:15:57.929Z,99706.06
2022-09-27T13:21:04.335Z,99704.81
2022-09-27T13:26:43.264Z,99703.37
2022-09-27T13:32:26.312Z,99692.97
2022-09-27T13:37:46.237Z,99692.06
2022-09-27T13:43:06.586Z,99703.91
2022-09-27T13:48:17.708Z,99753.47
2022-09-27T13:53:29.216Z,99726.75
2022-09-27T13:58:49.913Z,99725.00
2022-09-27T14:04:00.603Z,99719.19
2022-09-27T14:09:06.137Z,99708.19
2022-09-27T14:14:20.771Z,99716.88
2022-09-27T14:19:26.652Z,99697.63
2022-09-27T14:24:32.408Z,99698.50
2022-09-27T14:29:43.065Z,99697.78
2022-09-27T14:35:03.332Z,99697.59
2022-09-27T14:40:19.216Z,99688.81
2022-09-27T14:45:29.218Z,99700.75
2022-09-27T14:50:33.467Z,99720.41
2022-09-27T14:55:38.657Z,99697.50
2022-09-27T15:00:48.103Z,99705.25
2022-09-27T15:05:52.907Z,99714.00
2022-09-27T15:10:56.803Z,99706.16
2022-09-27T15:16:02.593Z,99709.25
2022-09-27T15:21:07.406Z,99700.81
2022-09-27T15:26:17.978Z,99688.69
2022-09-27T15:31:32.239Z,99677.38
2022-09-27T15:36:54.792Z,99702.81
2022-09-27T15:42:05.183Z,99705.97
2022-09-27T15:47:40.347Z,99704.75
2022-09-27T15:52:45.755Z,99684.06
2022-09-27T15:57:53.719Z,99673.97
2022-09-27T16:02:58.875Z,99677.59
2022-09-27T16:08:02.952Z,99664.50
2022-09-27T16:13:06.796Z,99662.81
2022-09-27T16:18:12.680Z,99651.72
2022-09-27T16:23:16.346Z,99641.84
2022-09-27T16:28:20.188Z,99642.94
2022-09-27T16:33:25.251Z,99652.84
2022-09-27T16:38:30.402Z,99649.38
2022-09-27T16:43:34.085Z,99635.31
2022-09-27T16:48:39.256Z,99649.19
2022-09-27T16:53:43.567Z,99637.78
2022-09-27T16:58:47.890Z,99618.97
2022-09-27T17:03:57.300Z,99626.66
2022-09-27T17:09:03.464Z,99617.38
2022-09-27T17:14:07.243Z,99626.09
2022-09-27T17:19:12.667Z,99629.53
2022-09-27T17:24:16.512Z,99633.56
2022-09-27T17:29:20.312Z,99615.25
2022-09-27T17:34:25.702Z,99597.97
2022-09-27T17:39:29.402Z,99598.75
2022-09-27T17:44:33.341Z,99581.34
2022-09-27T17:49:55.975Z,99581.28
2022-09-27T17:54:59.669Z,99581.16
2022-09-27T18:00:03.688Z,99592.41
2022-09-27T18:05:21.042Z,99589.03
2022-09-27T18:10:25.230Z,99583.56
2022-09-27T18:15:29.008Z,99594.03
2022-09-27T18:20:36.571Z,99606.13
2022-09-27T18:25:40.416Z,99609.53
2022-09-27T18:30:44.945Z,99604.81
2022-09-27T18:35:50.117Z,99601.84
2022-09-27T18:40:57.666Z,99592.31
2022-09-27T18:46:23.828Z,99574.06
2022-09-27T18:51:29.785Z,99575.63
2022-09-27T18:56:39.228Z,99575.50
2022-09-27T19:01:45.478Z,99568.53
2022-09-27T19:06:51.202Z,99561.47
2022-09-27T19:11:55.054Z,99565.97
2022-09-27T19:16:58.703Z,99572.66
2022-09-27T19:22:03.853Z,99585.50
2022-09-27T19:27:07.649Z,99582.91
2022-09-27T19:32:11.536Z,99581.75
2022-09-27T19:37:16.671Z,99581.84
2022-09-27T19:42:20.393Z,99594.09
2022-09-27T19:47:24.057Z,99598.69
2022-09-27T19:52:29.123Z,99601.69
2022-09-27T19:57:33.202Z,99601.75
2022-09-27T20:02:37.102Z,99607.72
2022-09-27T20:07:42.209Z,99617.72
2022-09-27T20:12:48.719Z,99619.59
2022-09-27T20:17:53.026Z,99612.47
2022-09-27T20:22:58.125Z,99603.84
2022-09-27T20:28:02.890Z,99569.16
2022-09-27T20:33:24.076Z,99548.06
2022-09-27T20:38:29.213Z,99541.16
2022-09-27T20:43:32.948Z,99534.88
2022-09-27T20:48:37.543Z,99519.91
2022-09-27T20:53:43.168Z,99511.44
2022-09-27T20:58:47.440Z,99520.47
2022-09-27T21:03:54.926Z,99511.53
2022-09-27T21:09:01.049Z,99523.44
2022-09-27T21:14:05.307Z,99521.37
2022-09-27T21:19:10.533Z,99532.72
2022-09-27T21:24:15.603Z,99533.94
2022-09-27T21:29:21.048Z,99535.78
2022-09-27T21:34:24.693Z,99531.69
2022-09-27T21:39:29.715Z,99545.59
2022-09-27T21:44:33.531Z,99550.09
2022-09-27T21:49:37.209Z,99546.63
2022-09-27T21:54:42.264Z,99531.00
2022-09-27T21:59:46.086Z,99541.38
2022-09-27T22:04:50.490Z,99546.41
2022-09-27T22:09:55.573Z,99542.19
2022-09-27T22:14:59.278Z,99538.13
2022-09-27T22:20:03.272Z,99524.56
2022-09-27T22:25:09.162Z,99528.50
2022-09-27T22:30:13.951Z,99529.91
2022-09-27T22:35:17.693Z,99535.25
2022-09-27T22:40:22.732Z,99527.81
2022-09-27T22:45:26.687Z,99520.50
2022-09-27T22:50:30.966Z,99519.53
2022-09-27T22:55:36.094Z,99505.63
2022-09-27T23:00:39.788Z,99510.09
2022-09-27T23:05:43.588Z,99511.44
2022-09-27T23:10:48.675Z,99509.50
2022-09-27T23:15:52.340Z,99507.03
2022-09-27T23:20:59.079Z,99506.75
2022-09-27T23:26:06.451Z,99506.75
2022-09-27T23:31:13.519Z,99510.03
2022-09-27T23:36:19.287Z,99506.78
2022-09-27T23:41:24.352Z,99519.81
2022-09-27T23:46:28.755Z,99527.75
2022-09-27T23:51:32.415Z,99524.31
2022-09-27T23:56:37.492Z,99517.69
